Decoded Metar for KUNU (JUNEAU in WI, USA) (IATA:UNU) | Meteo·Mobile Aviation Weather
aviador You're here:

KUNU Decoded Metar

JUNEAU in WI, USA
Report Time2019-07-16 10:35:00
UTC Time2019-07-16 10:40:37
Flight Rules vfr VFR
Wind230° at 05 kt
W.Decomp.*RWY 26: 4.4 kt HW 2.4 kt LCW
RWY 20: 4.3 kt HW 2.6 kt RCW
Visibility9999 m
Phenomena:N/A
Clouds:N/A
Expected CloudBase > 800 ft AGL from Temp-Dew spread
CeilingNone
Temp20°C (ISA +7)
Dew Point18°C (88% RH)
QNH1013 hPa
Density Alt2,014 ft
Elevation935 ft
Report Wrong Elevation
Raw Report
KUNU 161035Z AUTO 23005KT 10SM CLR 20/18 A2992 RMK AO2 T02020182
TSNO=

Extra information for KUNU:More info

Metar Taf Metar & Taf Last 4 Metars F.Rules Stats Wind Profile Meteogram Temp Stats Airport Information Weather charts Add Link Nearby VenuesMetar ALERT Operation Metar Decoded Social comments

AIRNAV info for KUNU